South Waltham, Massachusetts
Current Conditions -  °F | °C
As of 12:56 AM on Monday 26 Jan 2015 (Local Time) from KBED Reporting Station
Clear Clear  
Wind Chill:   Ceiling: Unl
Heat Index: 13°   Visibility: 10mi
Dew Point:   Wind: 8mph
Humidity: 59%   Direction: 360°N
Pressure: 30.05"   Gusts: NA
Location:  42.3696°N, 71.2353°W
Report Text: KBED 260556Z AUTO 36007KT 10SM CLR M11/M17 A3005 RMK AO2 SLP194 T11061172 11039 21106 51024 TSNO
Loading
Personal Weather Stations






























Interactive Weather Map New forecast layout! Learn more

10-Day Weather Forecast

Advertisements
Track Severe Weather on mobile